sensor_id;sensor_type;location;lat;lon;timestamp;P1;durP1;ratioP1;P2;durP2;ratioP2
65077;SDS011;51672;51.230;-2.322;2022-11-20T00:01:14;8.07;;;2.70;;
65077;SDS011;51672;51.230;-2.322;2022-11-20T00:04:58;7.15;;;2.70;;
65077;SDS011;51672;51.230;-2.322;2022-11-20T00:08:40;11.07;;;2.90;;
65077;SDS011;51672;51.230;-2.322;2022-11-20T00:12:23;8.60;;;3.08;;
65077;SDS011;51672;51.230;-2.322;2022-11-20T00:16:05;7.47;;;2.83;;
65077;SDS011;51672;51.230;-2.322;2022-11-20T00:19:48;7.30;;;3.03;;
65077;SDS011;51672;51.230;-2.322;2022-11-20T00:23:30;9.13;;;3.28;;
65077;SDS011;51672;51.230;-2.322;2022-11-20T00:27:12;6.80;;;3.15;;
65077;SDS011;51672;51.230;-2.322;2022-11-20T00:31:02;8.27;;;3.00;;
65077;SDS011;51672;51.230;-2.322;2022-11-20T00:34:48;9.55;;;3.33;;
65077;SDS011;51672;51.230;-2.322;2022-11-20T00:38:30;7.70;;;3.45;;
65077;SDS011;51672;51.230;-2.322;2022-11-20T00:42:12;7.63;;;3.20;;
65077;SDS011;51672;51.230;-2.322;2022-11-20T00:46:01;7.45;;;3.15;;
65077;SDS011;51672;51.230;-2.322;2022-11-20T00:49:47;9.95;;;2.95;;
65077;SDS011;51672;51.230;-2.322;2022-11-20T00:53:29;9.30;;;3.38;;
65077;SDS011;51672;51.230;-2.322;2022-11-20T00:57:11;7.83;;;3.50;;
65077;SDS011;51672;51.230;-2.322;2022-11-20T01:00:53;9.23;;;3.95;;
65077;SDS011;51672;51.230;-2.322;2022-11-20T01:04:51;9.65;;;3.85;;
65077;SDS011;51672;51.230;-2.322;2022-11-20T01:08:33;8.23;;;3.90;;
65077;SDS011;51672;51.230;-2.322;2022-11-20T01:12:16;10.25;;;3.70;;
65077;SDS011;51672;51.230;-2.322;2022-11-20T01:16:02;13.15;;;3.72;;
65077;SDS011;51672;51.230;-2.322;2022-11-20T01:19:49;9.40;;;3.28;;
65077;SDS011;51672;51.230;-2.322;2022-11-20T01:23:32;7.22;;;2.80;;
65077;SDS011;51672;51.230;-2.322;2022-11-20T01:27:18;6.20;;;2.70;;
65077;SDS011;51672;51.230;-2.322;2022-11-20T01:31:01;7.57;;;2.97;;
65077;SDS011;51672;51.230;-2.322;2022-11-20T01:34:52;6.10;;;2.47;;
65077;SDS011;51672;51.230;-2.322;2022-11-20T01:38:34;7.10;;;2.67;;
65077;SDS011;51672;51.230;-2.322;2022-11-20T01:42:15;7.28;;;2.88;;
65077;SDS011;51672;51.230;-2.322;2022-11-20T01:46:16;5.93;;;2.50;;
65077;SDS011;51672;51.230;-2.322;2022-11-20T01:50:01;5.60;;;2.10;;
65077;SDS011;51672;51.230;-2.322;2022-11-20T01:53:44;5.18;;;1.70;;
65077;SDS011;51672;51.230;-2.322;2022-11-20T01:57:27;5.80;;;1.80;;
65077;SDS011;51672;51.230;-2.322;2022-11-20T02:01:12;5.82;;;1.33;;
65077;SDS011;51672;51.230;-2.322;2022-11-20T02:04:56;4.35;;;1.30;;
65077;SDS011;51672;51.230;-2.322;2022-11-20T02:08:45;4.95;;;1.35;;
65077;SDS011;51672;51.230;-2.322;2022-11-20T02:12:27;5.27;;;1.13;;
65077;SDS011;51672;51.230;-2.322;2022-11-20T02:16:33;4.90;;;1.15;;
65077;SDS011;51672;51.230;-2.322;2022-11-20T02:20:17;4.30;;;1.10;;
65077;SDS011;51672;51.230;-2.322;2022-11-20T02:24:00;4.50;;;1.13;;
65077;SDS011;51672;51.230;-2.322;2022-11-20T02:27:43;3.10;;;0.60;;
65077;SDS011;51672;51.230;-2.322;2022-11-20T02:31:25;3.53;;;0.50;;
65077;SDS011;51672;51.230;-2.322;2022-11-20T02:35:09;3.60;;;0.50;;
65077;SDS011;51672;51.230;-2.322;2022-11-20T02:39:11;3.30;;;0.57;;
65077;SDS011;51672;51.230;-2.322;2022-11-20T02:42:55;2.83;;;0.60;;
65077;SDS011;51672;51.230;-2.322;2022-11-20T02:46:38;3.58;;;0.50;;
65077;SDS011;51672;51.230;-2.322;2022-11-20T02:50:20;3.00;;;0.57;;
65077;SDS011;51672;51.230;-2.322;2022-11-20T02:54:02;3.42;;;0.55;;
65077;SDS011;51672;51.230;-2.322;2022-11-20T02:57:44;2.15;;;0.40;;
65077;SDS011;51672;51.230;-2.322;2022-11-20T03:01:26;2.13;;;0.43;;
65077;SDS011;51672;51.230;-2.322;2022-11-20T03:05:08;3.40;;;0.50;;
65077;SDS011;51672;51.230;-2.322;2022-11-20T03:08:50;4.13;;;0.50;;
65077;SDS011;51672;51.230;-2.322;2022-11-20T03:12:32;2.58;;;0.60;;
65077;SDS011;51672;51.230;-2.322;2022-11-20T03:16:15;2.95;;;0.40;;
65077;SDS011;51672;51.230;-2.322;2022-11-20T03:19:59;1.90;;;0.40;;
65077;SDS011;51672;51.230;-2.322;2022-11-20T03:23:41;2.03;;;0.40;;
65077;SDS011;51672;51.230;-2.322;2022-11-20T03:27:23;2.10;;;0.40;;
65077;SDS011;51672;51.230;-2.322;2022-11-20T03:31:06;1.60;;;0.30;;
65077;SDS011;51672;51.230;-2.322;2022-11-20T03:34:52;5.93;;;0.80;;
65077;SDS011;51672;51.230;-2.322;2022-11-20T03:38:34;5.40;;;0.80;;
65077;SDS011;51672;51.230;-2.322;2022-11-20T03:42:17;2.72;;;0.55;;
65077;SDS011;51672;51.230;-2.322;2022-11-20T03:46:17;2.80;;;0.68;;
65077;SDS011;51672;51.230;-2.322;2022-11-20T03:49:59;3.03;;;0.80;;
65077;SDS011;51672;51.230;-2.322;2022-11-20T03:53:42;3.72;;;0.70;;
65077;SDS011;51672;51.230;-2.322;2022-11-20T03:57:25;3.08;;;0.60;;
65077;SDS011;51672;51.230;-2.322;2022-11-20T04:01:12;2.60;;;0.57;;
65077;SDS011;51672;51.230;-2.322;2022-11-20T04:04:55;2.20;;;0.43;;
65077;SDS011;51672;51.230;-2.322;2022-11-20T04:08:37;2.40;;;0.40;;
65077;SDS011;51672;51.230;-2.322;2022-11-20T04:12:19;2.65;;;0.60;;
65077;SDS011;51672;51.230;-2.322;2022-11-20T04:16:01;3.30;;;0.53;;
65077;SDS011;51672;51.230;-2.322;2022-11-20T04:19:43;2.72;;;0.80;;
65077;SDS011;51672;51.230;-2.322;2022-11-20T04:23:25;2.17;;;0.40;;
65077;SDS011;51672;51.230;-2.322;2022-11-20T04:27:09;3.00;;;0.77;;
65077;SDS011;51672;51.230;-2.322;2022-11-20T04:30:51;2.50;;;0.52;;
65077;SDS011;51672;51.230;-2.322;2022-11-20T04:34:33;2.22;;;0.50;;
65077;SDS011;51672;51.230;-2.322;2022-11-20T04:38:15;2.08;;;0.40;;
65077;SDS011;51672;51.230;-2.322;2022-11-20T04:41:56;2.63;;;0.60;;
65077;SDS011;51672;51.230;-2.322;2022-11-20T04:45:57;2.55;;;0.63;;
65077;SDS011;51672;51.230;-2.322;2022-11-20T04:49:40;2.40;;;0.88;;
65077;SDS011;51672;51.230;-2.322;2022-11-20T04:53:22;3.70;;;0.60;;
65077;SDS011;51672;51.230;-2.322;2022-11-20T04:57:04;2.30;;;0.55;;
65077;SDS011;51672;51.230;-2.322;2022-11-20T05:01:00;2.33;;;0.50;;
65077;SDS011;51672;51.230;-2.322;2022-11-20T05:04:58;2.95;;;0.60;;
65077;SDS011;51672;51.230;-2.322;2022-11-20T05:08:40;2.80;;;0.82;;
65077;SDS011;51672;51.230;-2.322;2022-11-20T05:12:22;3.95;;;1.00;;
65077;SDS011;51672;51.230;-2.322;2022-11-20T05:16:05;4.85;;;1.08;;
65077;SDS011;51672;51.230;-2.322;2022-11-20T05:19:49;6.10;;;1.03;;
65077;SDS011;51672;51.230;-2.322;2022-11-20T05:23:33;5.78;;;1.02;;
65077;SDS011;51672;51.230;-2.322;2022-11-20T05:27:15;9.02;;;0.85;;
65077;SDS011;51672;51.230;-2.322;2022-11-20T05:31:04;8.17;;;1.57;;
65077;SDS011;51672;51.230;-2.322;2022-11-20T05:34:51;15.25;;;1.58;;
65077;SDS011;51672;51.230;-2.322;2022-11-20T05:38:33;8.85;;;1.17;;
65077;SDS011;51672;51.230;-2.322;2022-11-20T05:42:15;12.40;;;1.80;;
65077;SDS011;51672;51.230;-2.322;2022-11-20T05:46:14;9.27;;;1.60;;
65077;SDS011;51672;51.230;-2.322;2022-11-20T05:49:57;12.60;;;1.92;;
65077;SDS011;51672;51.230;-2.322;2022-11-20T05:53:39;13.73;;;2.13;;
65077;SDS011;51672;51.230;-2.322;2022-11-20T05:57:28;16.00;;;1.73;;
65077;SDS011;51672;51.230;-2.322;2022-11-20T06:04:54;12.75;;;1.88;;
65077;SDS011;51672;51.230;-2.322;2022-11-20T06:08:36;8.80;;;1.40;;
65077;SDS011;51672;51.230;-2.322;2022-11-20T06:12:18;15.50;;;2.00;;
65077;SDS011;51672;51.230;-2.322;2022-11-20T06:16:00;9.15;;;1.65;;
65077;SDS011;51672;51.230;-2.322;2022-11-20T06:19:43;12.43;;;2.10;;
65077;SDS011;51672;51.230;-2.322;2022-11-20T06:23:24;18.17;;;1.95;;
65077;SDS011;51672;51.230;-2.322;2022-11-20T06:27:06;15.50;;;1.88;;
65077;SDS011;51672;51.230;-2.322;2022-11-20T06:30:48;16.77;;;2.10;;
65077;SDS011;51672;51.230;-2.322;2022-11-20T06:34:30;25.20;;;2.23;;
65077;SDS011;51672;51.230;-2.322;2022-11-20T06:38:12;27.35;;;2.58;;
65077;SDS011;51672;51.230;-2.322;2022-11-20T06:41:54;13.43;;;1.88;;
65077;SDS011;51672;51.230;-2.322;2022-11-20T06:45:40;22.20;;;2.43;;
65077;SDS011;51672;51.230;-2.322;2022-11-20T06:49:22;14.25;;;2.13;;
65077;SDS011;51672;51.230;-2.322;2022-11-20T06:53:05;13.35;;;1.92;;
65077;SDS011;51672;51.230;-2.322;2022-11-20T06:56:47;11.50;;;2.07;;
65077;SDS011;51672;51.230;-2.322;2022-11-20T07:00:29;10.68;;;1.75;;
65077;SDS011;51672;51.230;-2.322;2022-11-20T07:04:11;15.65;;;2.05;;
65077;SDS011;51672;51.230;-2.322;2022-11-20T07:07:55;18.77;;;1.90;;
65077;SDS011;51672;51.230;-2.322;2022-11-20T07:11:37;21.67;;;2.27;;
65077;SDS011;51672;51.230;-2.322;2022-11-20T07:15:20;14.48;;;2.30;;
65077;SDS011;51672;51.230;-2.322;2022-11-20T07:19:03;12.32;;;2.05;;
65077;SDS011;51672;51.230;-2.322;2022-11-20T07:22:45;14.83;;;2.40;;
65077;SDS011;51672;51.230;-2.322;2022-11-20T07:26:26;16.83;;;1.90;;
65077;SDS011;51672;51.230;-2.322;2022-11-20T07:30:08;10.90;;;1.60;;
65077;SDS011;51672;51.230;-2.322;2022-11-20T07:33:51;21.53;;;2.97;;
65077;SDS011;51672;51.230;-2.322;2022-11-20T07:37:36;14.80;;;2.90;;
65077;SDS011;51672;51.230;-2.322;2022-11-20T07:41:18;19.10;;;2.85;;
65077;SDS011;51672;51.230;-2.322;2022-11-20T07:45:00;14.48;;;2.28;;
65077;SDS011;51672;51.230;-2.322;2022-11-20T07:48:42;23.67;;;3.10;;
65077;SDS011;51672;51.230;-2.322;2022-11-20T07:52:24;15.88;;;2.67;;
65077;SDS011;51672;51.230;-2.322;2022-11-20T07:56:06;11.98;;;2.08;;
65077;SDS011;51672;51.230;-2.322;2022-11-20T07:59:48;9.47;;;1.90;;
65077;SDS011;51672;51.230;-2.322;2022-11-20T08:03:30;15.23;;;2.30;;
65077;SDS011;51672;51.230;-2.322;2022-11-20T08:07:12;20.27;;;2.67;;
65077;SDS011;51672;51.230;-2.322;2022-11-20T08:10:56;17.40;;;2.47;;
65077;SDS011;51672;51.230;-2.322;2022-11-20T08:14:59;18.50;;;2.60;;
65077;SDS011;51672;51.230;-2.322;2022-11-20T08:18:41;22.92;;;2.97;;
65077;SDS011;51672;51.230;-2.322;2022-11-20T08:22:22;24.23;;;3.28;;
65077;SDS011;51672;51.230;-2.322;2022-11-20T08:26:05;21.80;;;3.33;;
65077;SDS011;51672;51.230;-2.322;2022-11-20T08:29:48;21.88;;;3.10;;
65077;SDS011;51672;51.230;-2.322;2022-11-20T08:37:50;24.50;;;2.80;;
65077;SDS011;51672;51.230;-2.322;2022-11-20T08:41:38;23.40;;;3.22;;
65077;SDS011;51672;51.230;-2.322;2022-11-20T08:45:21;22.17;;;2.88;;
65077;SDS011;51672;51.230;-2.322;2022-11-20T08:49:04;24.42;;;4.95;;
65077;SDS011;51672;51.230;-2.322;2022-11-20T08:57:01;25.17;;;4.10;;
65077;SDS011;51672;51.230;-2.322;2022-11-20T09:04:46;29.87;;;4.13;;
65077;SDS011;51672;51.230;-2.322;2022-11-20T09:12:34;18.77;;;3.55;;
65077;SDS011;51672;51.230;-2.322;2022-11-20T09:16:15;17.40;;;2.60;;
65077;SDS011;51672;51.230;-2.322;2022-11-20T09:20:38;18.98;;;2.92;;
65077;SDS011;51672;51.230;-2.322;2022-11-20T09:24:27;22.00;;;5.97;;
65077;SDS011;51672;51.230;-2.322;2022-11-20T09:28:10;20.77;;;3.97;;
65077;SDS011;51672;51.230;-2.322;2022-11-20T09:31:52;14.43;;;2.55;;
65077;SDS011;51672;51.230;-2.322;2022-11-20T09:39:49;21.17;;;3.97;;
65077;SDS011;51672;51.230;-2.322;2022-11-20T09:43:39;21.70;;;3.30;;
65077;SDS011;51672;51.230;-2.322;2022-11-20T09:52:21;20.27;;;3.30;;
65077;SDS011;51672;51.230;-2.322;2022-11-20T09:56:43;23.60;;;4.10;;
65077;SDS011;51672;51.230;-2.322;2022-11-20T10:00:28;22.20;;;4.47;;
65077;SDS011;51672;51.230;-2.322;2022-11-20T10:04:18;16.48;;;2.72;;
65077;SDS011;51672;51.230;-2.322;2022-11-20T10:32:21;21.70;;;2.33;;
65077;SDS011;51672;51.230;-2.322;2022-11-20T10:43:43;21.17;;;3.15;;
65077;SDS011;51672;51.230;-2.322;2022-11-20T10:47:28;27.13;;;3.63;;
65077;SDS011;51672;51.230;-2.322;2022-11-20T11:07:30;24.33;;;4.15;;
65077;SDS011;51672;51.230;-2.322;2022-11-20T11:15:26;22.70;;;4.07;;
65077;SDS011;51672;51.230;-2.322;2022-11-20T11:24:23;16.73;;;3.53;;
65077;SDS011;51672;51.230;-2.322;2022-11-20T11:37:02;18.10;;;3.33;;
65077;SDS011;51672;51.230;-2.322;2022-11-20T11:49:16;20.05;;;2.33;;
65077;SDS011;51672;51.230;-2.322;2022-11-20T12:16:28;22.67;;;3.17;;
65077;SDS011;51672;51.230;-2.322;2022-11-20T13:12:43;13.43;;;2.83;;
65077;SDS011;51672;51.230;-2.322;2022-11-20T13:38:43;6.35;;;1.50;;
65077;SDS011;51672;51.230;-2.322;2022-11-20T13:51:50;7.18;;;0.88;;
65077;SDS011;51672;51.230;-2.322;2022-11-20T15:30:14;10.50;;;1.40;;
65077;SDS011;51672;51.230;-2.322;2022-11-20T15:34:35;13.35;;;1.75;;
65077;SDS011;51672;51.230;-2.322;2022-11-20T15:42:34;12.40;;;1.42;;
65077;SDS011;51672;51.230;-2.322;2022-11-20T15:50:29;13.07;;;1.43;;
65077;SDS011;51672;51.230;-2.322;2022-11-20T15:54:39;15.68;;;1.30;;
65077;SDS011;51672;51.230;-2.322;2022-11-20T15:58:22;15.00;;;1.50;;
65077;SDS011;51672;51.230;-2.322;2022-11-20T16:02:29;8.73;;;1.33;;
65077;SDS011;51672;51.230;-2.322;2022-11-20T16:06:12;17.77;;;1.80;;
65077;SDS011;51672;51.230;-2.322;2022-11-20T16:14:04;14.80;;;2.55;;
65077;SDS011;51672;51.230;-2.322;2022-11-20T16:22:02;13.25;;;1.95;;
65077;SDS011;51672;51.230;-2.322;2022-11-20T16:26:08;17.77;;;2.40;;
65077;SDS011;51672;51.230;-2.322;2022-11-20T16:29:51;11.32;;;1.70;;
65077;SDS011;51672;51.230;-2.322;2022-11-20T16:33:33;10.32;;;1.55;;
65077;SDS011;51672;51.230;-2.322;2022-11-20T16:37:15;15.55;;;1.58;;
65077;SDS011;51672;51.230;-2.322;2022-11-20T16:41:00;11.48;;;1.60;;
65077;SDS011;51672;51.230;-2.322;2022-11-20T16:44:45;10.13;;;1.47;;
65077;SDS011;51672;51.230;-2.322;2022-11-20T16:48:28;9.98;;;1.83;;
65077;SDS011;51672;51.230;-2.322;2022-11-20T16:52:10;12.07;;;2.00;;
65077;SDS011;51672;51.230;-2.322;2022-11-20T16:55:51;11.50;;;1.93;;
65077;SDS011;51672;51.230;-2.322;2022-11-20T16:59:33;9.38;;;1.65;;
65077;SDS011;51672;51.230;-2.322;2022-11-20T17:03:15;14.20;;;2.55;;
65077;SDS011;51672;51.230;-2.322;2022-11-20T17:06:58;14.10;;;3.20;;
65077;SDS011;51672;51.230;-2.322;2022-11-20T17:10:47;16.30;;;4.63;;
65077;SDS011;51672;51.230;-2.322;2022-11-20T17:14:29;13.18;;;4.10;;
65077;SDS011;51672;51.230;-2.322;2022-11-20T17:18:12;13.68;;;4.25;;
65077;SDS011;51672;51.230;-2.322;2022-11-20T17:21:54;23.60;;;8.60;;
65077;SDS011;51672;51.230;-2.322;2022-11-20T17:25:36;84.50;;;31.38;;
65077;SDS011;51672;51.230;-2.322;2022-11-20T17:29:18;42.63;;;16.13;;
65077;SDS011;51672;51.230;-2.322;2022-11-20T17:33:04;24.93;;;7.73;;
65077;SDS011;51672;51.230;-2.322;2022-11-20T17:36:46;23.40;;;7.40;;
65077;SDS011;51672;51.230;-2.322;2022-11-20T17:40:29;48.45;;;16.60;;
65077;SDS011;51672;51.230;-2.322;2022-11-20T17:44:11;76.20;;;35.30;;
65077;SDS011;51672;51.230;-2.322;2022-11-20T17:47:53;33.60;;;15.82;;
65077;SDS011;51672;51.230;-2.322;2022-11-20T17:51:36;23.77;;;9.82;;
65077;SDS011;51672;51.230;-2.322;2022-11-20T17:55:18;17.83;;;8.52;;
65077;SDS011;51672;51.230;-2.322;2022-11-20T17:59:03;19.47;;;7.87;;
65077;SDS011;51672;51.230;-2.322;2022-11-20T18:02:46;18.73;;;6.63;;
65077;SDS011;51672;51.230;-2.322;2022-11-20T18:06:29;17.00;;;6.20;;
65077;SDS011;51672;51.230;-2.322;2022-11-20T18:10:12;22.47;;;7.17;;
65077;SDS011;51672;51.230;-2.322;2022-11-20T18:13:55;21.38;;;7.65;;
65077;SDS011;51672;51.230;-2.322;2022-11-20T18:17:57;19.02;;;8.90;;
65077;SDS011;51672;51.230;-2.322;2022-11-20T18:21:39;24.90;;;10.07;;
65077;SDS011;51672;51.230;-2.322;2022-11-20T18:25:22;18.63;;;8.85;;
65077;SDS011;51672;51.230;-2.322;2022-11-20T18:29:04;25.50;;;8.73;;
65077;SDS011;51672;51.230;-2.322;2022-11-20T18:32:47;24.23;;;9.70;;
65077;SDS011;51672;51.230;-2.322;2022-11-20T18:36:30;26.73;;;9.73;;
65077;SDS011;51672;51.230;-2.322;2022-11-20T18:40:13;23.95;;;9.60;;
65077;SDS011;51672;51.230;-2.322;2022-11-20T18:43:55;22.23;;;10.43;;
65077;SDS011;51672;51.230;-2.322;2022-11-20T18:47:56;22.00;;;11.47;;
65077;SDS011;51672;51.230;-2.322;2022-11-20T18:51:39;18.10;;;9.07;;
65077;SDS011;51672;51.230;-2.322;2022-11-20T18:55:21;23.27;;;11.07;;
65077;SDS011;51672;51.230;-2.322;2022-11-20T18:59:06;26.60;;;11.20;;
65077;SDS011;51672;51.230;-2.322;2022-11-20T19:02:51;29.80;;;14.30;;
65077;SDS011;51672;51.230;-2.322;2022-11-20T19:06:34;28.80;;;13.05;;
65077;SDS011;51672;51.230;-2.322;2022-11-20T19:10:18;29.73;;;13.13;;
65077;SDS011;51672;51.230;-2.322;2022-11-20T19:14:01;29.07;;;13.03;;
65077;SDS011;51672;51.230;-2.322;2022-11-20T19:17:43;28.67;;;11.98;;
65077;SDS011;51672;51.230;-2.322;2022-11-20T19:21:25;33.28;;;12.80;;
65077;SDS011;51672;51.230;-2.322;2022-11-20T19:25:07;40.20;;;18.97;;
65077;SDS011;51672;51.230;-2.322;2022-11-20T19:28:49;24.75;;;9.13;;
65077;SDS011;51672;51.230;-2.322;2022-11-20T19:32:31;17.27;;;5.18;;
65077;SDS011;51672;51.230;-2.322;2022-11-20T19:39:57;17.55;;;6.60;;
65077;SDS011;51672;51.230;-2.322;2022-11-20T19:43:40;11.70;;;3.83;;
65077;SDS011;51672;51.230;-2.322;2022-11-20T19:47:22;12.25;;;3.40;;
65077;SDS011;51672;51.230;-2.322;2022-11-20T19:51:25;10.80;;;3.10;;
65077;SDS011;51672;51.230;-2.322;2022-11-20T19:55:10;18.58;;;3.13;;
65077;SDS011;51672;51.230;-2.322;2022-11-20T19:58:52;10.82;;;3.53;;
65077;SDS011;51672;51.230;-2.322;2022-11-20T20:02:35;17.30;;;3.47;;
65077;SDS011;51672;51.230;-2.322;2022-11-20T20:06:18;17.23;;;5.10;;
65077;SDS011;51672;51.230;-2.322;2022-11-20T20:10:02;17.20;;;5.50;;
65077;SDS011;51672;51.230;-2.322;2022-11-20T20:13:44;12.23;;;4.67;;
65077;SDS011;51672;51.230;-2.322;2022-11-20T20:17:27;16.00;;;4.07;;
65077;SDS011;51672;51.230;-2.322;2022-11-20T20:21:12;16.13;;;4.40;;
65077;SDS011;51672;51.230;-2.322;2022-11-20T20:24:57;17.05;;;4.43;;
65077;SDS011;51672;51.230;-2.322;2022-11-20T20:28:41;16.80;;;2.90;;
65077;SDS011;51672;51.230;-2.322;2022-11-20T20:32:23;12.77;;;2.85;;
65077;SDS011;51672;51.230;-2.322;2022-11-20T20:36:06;11.65;;;2.17;;
65077;SDS011;51672;51.230;-2.322;2022-11-20T20:39:49;11.53;;;2.90;;
65077;SDS011;51672;51.230;-2.322;2022-11-20T20:43:31;12.63;;;2.25;;
65077;SDS011;51672;51.230;-2.322;2022-11-20T20:47:33;10.18;;;2.03;;
65077;SDS011;51672;51.230;-2.322;2022-11-20T20:51:17;11.03;;;2.40;;
65077;SDS011;51672;51.230;-2.322;2022-11-20T20:54:59;11.23;;;2.30;;
65077;SDS011;51672;51.230;-2.322;2022-11-20T20:58:41;14.57;;;3.05;;
65077;SDS011;51672;51.230;-2.322;2022-11-20T21:02:26;10.70;;;2.65;;
65077;SDS011;51672;51.230;-2.322;2022-11-20T21:06:09;14.23;;;3.17;;
65077;SDS011;51672;51.230;-2.322;2022-11-20T21:09:51;12.38;;;2.60;;
65077;SDS011;51672;51.230;-2.322;2022-11-20T21:13:34;11.05;;;2.58;;
65077;SDS011;51672;51.230;-2.322;2022-11-20T21:17:17;14.60;;;3.93;;
65077;SDS011;51672;51.230;-2.322;2022-11-20T21:20:59;21.67;;;6.20;;
65077;SDS011;51672;51.230;-2.322;2022-11-20T21:25:03;24.27;;;6.28;;
65077;SDS011;51672;51.230;-2.322;2022-11-20T21:28:45;20.03;;;5.03;;
65077;SDS011;51672;51.230;-2.322;2022-11-20T21:32:27;24.25;;;6.13;;
65077;SDS011;51672;51.230;-2.322;2022-11-20T21:36:09;33.47;;;6.15;;
65077;SDS011;51672;51.230;-2.322;2022-11-20T21:39:52;17.85;;;4.15;;
65077;SDS011;51672;51.230;-2.322;2022-11-20T21:43:35;14.97;;;3.73;;
65077;SDS011;51672;51.230;-2.322;2022-11-20T21:47:17;14.68;;;3.03;;
65077;SDS011;51672;51.230;-2.322;2022-11-20T21:51:06;16.33;;;3.10;;
65077;SDS011;51672;51.230;-2.322;2022-11-20T21:54:59;16.73;;;3.90;;
65077;SDS011;51672;51.230;-2.322;2022-11-20T21:58:41;16.90;;;3.13;;
65077;SDS011;51672;51.230;-2.322;2022-11-20T22:02:24;15.05;;;3.22;;
65077;SDS011;51672;51.230;-2.322;2022-11-20T22:06:06;11.40;;;2.93;;
65077;SDS011;51672;51.230;-2.322;2022-11-20T22:09:49;18.73;;;3.38;;
65077;SDS011;51672;51.230;-2.322;2022-11-20T22:13:31;14.57;;;2.80;;
65077;SDS011;51672;51.230;-2.322;2022-11-20T22:17:34;16.45;;;3.35;;
65077;SDS011;51672;51.230;-2.322;2022-11-20T22:21:34;12.50;;;2.80;;
65077;SDS011;51672;51.230;-2.322;2022-11-20T22:25:18;12.23;;;2.88;;
65077;SDS011;51672;51.230;-2.322;2022-11-20T22:29:00;8.52;;;2.80;;
65077;SDS011;51672;51.230;-2.322;2022-11-20T22:32:42;14.70;;;2.63;;
65077;SDS011;51672;51.230;-2.322;2022-11-20T22:36:25;15.50;;;2.75;;
65077;SDS011;51672;51.230;-2.322;2022-11-20T22:40:10;13.93;;;3.00;;
65077;SDS011;51672;51.230;-2.322;2022-11-20T22:43:53;10.63;;;2.87;;
65077;SDS011;51672;51.230;-2.322;2022-11-20T22:47:43;8.77;;;2.38;;
65077;SDS011;51672;51.230;-2.322;2022-11-20T22:51:26;14.43;;;3.80;;
65077;SDS011;51672;51.230;-2.322;2022-11-20T22:55:09;17.05;;;3.60;;
65077;SDS011;51672;51.230;-2.322;2022-11-20T22:58:56;10.27;;;2.87;;
65077;SDS011;51672;51.230;-2.322;2022-11-20T23:02:42;19.20;;;3.17;;
65077;SDS011;51672;51.230;-2.322;2022-11-20T23:06:27;12.25;;;3.00;;
65077;SDS011;51672;51.230;-2.322;2022-11-20T23:10:09;15.87;;;2.90;;
65077;SDS011;51672;51.230;-2.322;2022-11-20T23:13:57;13.43;;;3.22;;
65077;SDS011;51672;51.230;-2.322;2022-11-20T23:17:40;14.85;;;2.95;;
65077;SDS011;51672;51.230;-2.322;2022-11-20T23:21:23;17.43;;;3.27;;
65077;SDS011;51672;51.230;-2.322;2022-11-20T23:25:05;13.38;;;3.00;;
65077;SDS011;51672;51.230;-2.322;2022-11-20T23:28:48;17.30;;;3.25;;
65077;SDS011;51672;51.230;-2.322;2022-11-20T23:32:30;13.98;;;3.33;;
65077;SDS011;51672;51.230;-2.322;2022-11-20T23:36:12;13.77;;;2.63;;
65077;SDS011;51672;51.230;-2.322;2022-11-20T23:39:54;14.93;;;2.90;;
65077;SDS011;51672;51.230;-2.322;2022-11-20T23:43:36;11.55;;;3.00;;
65077;SDS011;51672;51.230;-2.322;2022-11-20T23:47:18;20.90;;;3.07;;
65077;SDS011;51672;51.230;-2.322;2022-11-20T23:51:00;15.20;;;2.67;;
65077;SDS011;51672;51.230;-2.322;2022-11-20T23:54:42;12.95;;;2.75;;
65077;SDS011;51672;51.230;-2.322;2022-11-20T23:58:25;16.93;;;3.07;;
